Time;durP1;ratioP1;P1;durP2;ratioP2;P2;SDS_P1;SDS_P2;PMS_P1;PMS_P2;Temp;Humidity;BMP_temperature;BMP_pressure;BME280_temperature;BME280_humidity;BME280_pressure;Samples;Min_cycle;Max_cycle;Signal;HPM_P1;HPM_P2
2023/08/24 00:01:09;;;;;;;;;15.33;14.00;;;;;28.98;54.11;99789.81;5051421;27;45278;-72
2023/08/24 00:03:34;;;;;;;;;13.33;13.00;;;;;28.96;54.44;99773.75;5070263;27;45484;-73
2023/08/24 00:06:00;;;;;;;;;15.00;13.33;;;;;28.95;53.85;99779.25;5087662;27;45521;-72
2023/08/24 00:08:26;;;;;;;;;12.00;11.67;;;;;28.91;54.17;99777.69;5077268;27;45975;-73
2023/08/24 00:10:52;;;;;;;;;11.67;11.00;;;;;28.91;53.91;99775.00;5075948;27;45373;-73
2023/08/24 00:13:18;;;;;;;;;15.00;14.33;;;;;28.86;53.76;99758.28;5088402;27;45658;-73
2023/08/24 00:15:45;;;;;;;;;13.67;13.00;;;;;28.81;53.99;99757.66;5085003;27;45477;-73
2023/08/24 00:18:10;;;;;;;;;14.67;14.00;;;;;28.85;52.79;99761.91;5086860;27;45981;-73
2023/08/24 00:20:37;;;;;;;;;13.00;11.00;;;;;28.90;51.66;99759.81;5086474;27;45426;-74
2023/08/24 00:23:03;;;;;;;;;13.00;11.67;;;;;28.95;51.30;99763.13;5084623;27;45770;-73
2023/08/24 00:25:30;;;;;;;;;9.33;9.33;;;;;29.00;51.63;99752.94;5084853;27;45515;-73
2023/08/24 00:27:56;;;;;;;;;12.00;11.67;;;;;29.03;48.60;99750.09;5084602;27;45942;-73
2023/08/24 00:30:23;;;;;;;;;11.00;11.00;;;;;29.19;48.07;99755.44;5063409;27;45526;-73
2023/08/24 00:32:48;;;;;;;;;10.00;10.00;;;;;29.23;47.21;99740.84;5077786;27;45409;-73
2023/08/24 00:35:14;;;;;;;;;9.00;9.00;;;;;29.38;47.00;99757.88;5088381;27;45536;-72
2023/08/24 00:37:40;;;;;;;;;12.00;11.33;;;;;29.44;46.25;99746.75;5085969;27;46136;-72
2023/08/24 00:40:10;;;;;;;;;10.33;10.00;;;;;29.61;44.35;99742.16;5087181;27;45517;-73
2023/08/24 00:42:43;;;;;;;;;7.33;7.33;;;;;29.78;44.38;99743.81;5084324;27;45477;-72
2023/08/24 00:45:11;;;;;;;;;10.33;10.00;;;;;29.89;43.46;99744.88;5081499;27;45429;-72
2023/08/24 00:47:39;;;;;;;;;10.33;10.33;;;;;30.04;42.72;99742.16;5071094;27;46102;-73
2023/08/24 00:50:06;;;;;;;;;11.67;11.00;;;;;30.11;42.11;99733.59;5085235;27;45499;-73
2023/08/24 00:52:33;;;;;;;;;10.00;9.33;;;;;30.22;41.86;99738.31;5063353;27;45460;-73
2023/08/24 00:55:02;;;;;;;;;9.00;9.00;;;;;30.34;40.40;99725.88;5072753;27;45438;-73
2023/08/24 00:57:28;;;;;;;;;11.33;10.00;;;;;30.51;39.61;99722.94;5070455;27;46289;-72
2023/08/24 00:59:56;;;;;;;;;11.67;10.00;;;;;30.79;39.53;99739.13;5080701;27;45615;-73
2023/08/24 01:02:21;;;;;;;;;11.00;11.00;;;;;30.94;38.74;99732.75;5066444;27;45402;-73
2023/08/24 01:04:47;;;;;;;;;12.00;12.00;;;;;31.02;38.00;99722.28;5068022;27;45343;-73
2023/08/24 01:07:15;;;;;;;;;10.00;10.00;;;;;31.19;37.98;99721.13;5067879;27;45534;-73
2023/08/24 01:09:42;;;;;;;;;9.33;9.33;;;;;31.36;37.69;99727.22;5085912;27;45426;-72
2023/08/24 01:12:44;;;;;;;;;9.33;9.33;;;;;31.46;37.24;99723.78;5084254;27;45613;-72
2023/08/24 01:15:21;;;;;;;;;10.00;9.33;;;;;31.58;36.90;99715.81;5088617;27;45488;-72
2023/08/24 01:17:50;;;;;;;;;9.67;9.00;;;;;31.68;37.06;99716.88;5064909;27;45462;-73
2023/08/24 01:20:17;;;;;;;;;12.33;11.00;;;;;31.78;36.89;99717.94;5067217;27;45523;-72
2023/08/24 01:23:22;;;;;;;;;11.00;11.00;;;;;31.80;36.32;99707.03;5062499;27;45331;-73
2023/08/24 01:26:04;;;;;;;;;11.33;11.33;;;;;31.88;36.61;99713.59;5062929;27;45362;-72
2023/08/24 01:28:31;;;;;;;;;11.00;10.00;;;;;31.94;36.88;99714.13;5046139;27;46549;-73
2023/08/24 01:30:57;;;;;;;;;12.33;12.33;;;;;31.95;35.92;99714.00;5087198;27;45582;-72
2023/08/24 01:33:22;;;;;;;;;11.00;10.67;;;;;31.99;36.26;99703.84;5091060;27;45494;-72
2023/08/24 01:35:48;;;;;;;;;9.33;9.00;;;;;31.96;36.21;99695.97;5068360;27;45509;-73
2023/08/24 01:38:15;;;;;;;;;12.00;11.33;;;;;31.98;36.08;99694.88;5072499;28;45581;-73
2023/08/24 01:40:49;;;;;;;;;10.67;10.33;;;;;32.09;35.72;99697.72;5057180;28;45370;-73
2023/08/24 01:43:17;;;;;;;;;10.67;10.00;;;;;32.14;35.44;99691.94;5068169;28;45451;-73
2023/08/24 01:45:44;;;;;;;;;9.33;8.67;;;;;32.19;35.39;99697.00;5061102;28;45917;-73
2023/08/24 01:48:12;;;;;;;;;11.33;10.67;;;;;32.19;35.53;99697.91;5057850;28;47792;-73
2023/08/24 01:50:38;;;;;;;;;11.33;9.33;;;;;32.22;34.96;99700.34;5069489;28;45488;-72
2023/08/24 01:53:04;;;;;;;;;10.67;10.67;;;;;32.23;35.27;99685.88;5068457;28;45596;-73
2023/08/24 01:55:30;;;;;;;;;10.33;9.33;;;;;32.32;35.50;99694.28;5061854;28;45494;-73
2023/08/24 01:57:56;;;;;;;;;10.67;10.00;;;;;32.34;34.94;99690.47;5072333;28;45214;-73
2023/08/24 02:00:22;;;;;;;;;12.00;11.00;;;;;32.39;35.05;99690.13;5042646;28;45596;-73
2023/08/24 02:02:48;;;;;;;;;12.00;11.67;;;;;32.45;35.16;99689.66;5056787;28;45465;-73
2023/08/24 02:05:13;;;;;;;;;9.67;8.33;;;;;32.49;34.26;99693.84;5057436;28;45571;-73
2023/08/24 02:07:43;;;;;;;;;11.33;11.33;;;;;32.49;34.30;99680.34;5037533;28;46933;-72
2023/08/24 02:10:08;;;;;;;;;11.67;11.33;;;;;32.56;34.05;99672.69;5071186;28;45406;-73
2023/08/24 02:12:34;;;;;;;;;14.00;14.00;;;;;32.56;34.26;99676.25;5065859;28;45711;-73
2023/08/24 02:15:00;;;;;;;;;14.00;14.00;;;;;32.63;34.39;99677.50;5062125;28;45631;-73
2023/08/24 02:17:26;;;;;;;;;11.67;11.00;;;;;32.61;33.88;99668.66;5075179;28;45413;-73
2023/08/24 02:19:52;;;;;;;;;13.00;11.00;;;;;32.61;33.74;99679.47;5069399;28;45381;-73
2023/08/24 02:22:18;;;;;;;;;12.00;11.00;;;;;32.63;34.70;99682.91;5072357;28;45379;-72
2023/08/24 02:24:43;;;;;;;;;13.67;12.00;;;;;32.65;34.38;99680.97;5061002;28;45343;-73
2023/08/24 02:27:09;;;;;;;;;13.00;12.67;;;;;32.59;33.85;99676.03;5067331;28;45477;-73
2023/08/24 02:29:35;;;;;;;;;10.00;9.67;;;;;32.68;33.72;99679.84;5068795;28;45913;-73
2023/08/24 02:32:01;;;;;;;;;11.00;10.00;;;;;32.70;33.47;99683.31;5059658;28;45735;-73
2023/08/24 02:34:27;;;;;;;;;12.00;11.00;;;;;32.76;33.77;99684.69;5068650;28;45478;-73
2023/08/24 02:36:53;;;;;;;;;11.33;11.00;;;;;32.85;33.68;99689.41;5059992;28;45540;-72
2023/08/24 02:39:19;;;;;;;;;10.00;10.00;;;;;32.84;33.46;99682.25;5060235;28;46192;-72
2023/08/24 02:41:44;;;;;;;;;12.00;11.67;;;;;32.84;33.33;99676.84;5074954;28;45478;-73
2023/08/24 02:44:10;;;;;;;;;12.00;11.00;;;;;32.88;32.37;99672.91;5064269;28;45501;-73
2023/08/24 02:46:35;;;;;;;;;10.67;10.67;;;;;32.92;32.69;99677.13;5056088;28;46084;-72
2023/08/24 02:49:01;;;;;;;;;10.33;10.00;;;;;32.90;32.94;99673.66;5071566;28;45475;-73
2023/08/24 02:51:27;;;;;;;;;13.00;12.67;;;;;32.89;32.76;99670.09;5063402;28;46135;-73
2023/08/24 02:53:52;;;;;;;;;8.33;8.00;;;;;32.94;32.47;99683.25;5065176;28;45412;-73
2023/08/24 02:56:18;;;;;;;;;10.67;9.33;;;;;32.97;32.83;99680.34;5056139;28;45308;-73
2023/08/24 02:58:44;;;;;;;;;11.00;10.00;;;;;32.91;32.79;99667.28;5075226;28;45505;-73
2023/08/24 03:01:09;;;;;;;;;9.00;9.00;;;;;32.93;33.38;99670.72;5059796;28;45462;-73
2023/08/24 03:03:36;;;;;;;;;10.67;10.00;;;;;32.98;33.19;99679.34;5060085;28;45259;-73
2023/08/24 03:06:04;;;;;;;;;11.00;10.67;;;;;32.99;32.85;99670.25;5059800;28;45970;-72
2023/08/24 03:08:31;;;;;;;;;10.33;9.67;;;;;33.01;32.53;99671.00;5062828;28;45299;-73
2023/08/24 03:10:58;;;;;;;;;11.00;11.00;;;;;32.99;32.69;99659.44;5075392;28;45695;-73
2023/08/24 03:13:24;;;;;;;;;11.67;11.67;;;;;33.02;32.56;99659.19;5067117;28;45600;-73
2023/08/24 03:15:50;;;;;;;;;10.33;10.00;;;;;33.08;32.98;99671.38;5076486;28;46085;-73
2023/08/24 03:18:17;;;;;;;;;15.00;14.00;;;;;33.08;32.66;99668.66;5059774;28;45328;-73
2023/08/24 03:20:45;;;;;;;;;12.00;11.33;;;;;33.11;32.46;99664.88;5075536;28;48853;-73
2023/08/24 03:23:10;;;;;;;;;10.67;10.67;;;;;33.12;32.13;99666.63;5059877;28;45323;-73
2023/08/24 03:25:37;;;;;;;;;12.00;11.67;;;;;33.07;33.01;99662.41;5059147;28;46115;-73
2023/08/24 03:28:04;;;;;;;;;11.67;11.67;;;;;33.08;32.99;99666.81;5041606;28;45335;-73
2023/08/24 03:30:29;;;;;;;;;11.00;10.67;;;;;33.08;32.51;99666.81;5062527;28;45469;-73
2023/08/24 03:32:55;;;;;;;;;13.00;12.00;;;;;33.02;33.35;99670.00;5064834;28;45459;-73
2023/08/24 03:35:20;;;;;;;;;11.00;11.00;;;;;32.99;33.32;99672.06;5056073;28;47822;-73
2023/08/24 03:37:46;;;;;;;;;12.00;10.33;;;;;32.84;33.29;99661.47;5059471;28;45304;-73
2023/08/24 03:40:13;;;;;;;;;9.67;8.67;;;;;32.82;34.83;99673.41;5069845;28;46163;-73
2023/08/24 03:42:38;;;;;;;;;12.00;11.00;;;;;32.67;34.99;99673.59;5073208;28;45429;-72
2023/08/24 03:45:05;;;;;;;;;13.00;12.33;;;;;32.60;35.61;99660.66;5060352;28;46142;-73
2023/08/24 03:47:30;;;;;;;;;12.00;11.00;;;;;32.38;35.16;99664.09;5079552;27;45488;-73
2023/08/24 03:49:56;;;;;;;;;12.00;12.00;;;;;32.27;35.75;99660.34;5058670;28;45441;-73
2023/08/24 03:52:21;;;;;;;;;12.00;12.00;;;;;32.18;35.70;99652.06;5059544;28;45480;-73
2023/08/24 03:54:47;;;;;;;;;12.33;11.67;;;;;32.13;35.15;99663.19;5057452;28;46792;-73
2023/08/24 03:57:13;;;;;;;;;12.67;12.33;;;;;32.08;36.12;99659.97;5058481;28;45378;-72
2023/08/24 03:59:38;;;;;;;;;12.67;11.00;;;;;31.91;36.76;99675.56;5040146;28;45502;-72
2023/08/24 04:02:04;;;;;;;;;11.67;11.33;;;;;31.82;36.98;99676.22;5063895;28;45442;-72
2023/08/24 04:04:33;;;;;;;;;12.00;12.00;;;;;31.79;36.70;99671.03;5077802;28;46152;-72
2023/08/24 04:06:58;;;;;;;;;12.00;12.00;;;;;31.71;37.07;99679.72;5058761;28;45268;-73
2023/08/24 04:09:24;;;;;;;;;9.00;8.67;;;;;31.69;36.94;99680.78;5071997;28;45364;-72
2023/08/24 04:11:50;;;;;;;;;12.33;11.67;;;;;31.68;36.37;99679.06;5078161;28;45345;-73
2023/08/24 04:14:15;;;;;;;;;12.67;12.67;;;;;31.59;36.50;99677.88;5065540;28;45948;-72
2023/08/24 04:16:41;;;;;;;;;12.00;11.00;;;;;31.71;35.67;99684.22;5058712;28;45814;-72
2023/08/24 04:19:08;;;;;;;;;13.33;13.00;;;;;31.73;35.63;99687.69;5067228;28;45481;-72
2023/08/24 04:21:33;;;;;;;;;13.00;13.00;;;;;31.66;35.57;99671.06;5078322;27;45407;-72
2023/08/24 04:23:59;;;;;;;;;13.00;12.00;;;;;31.78;34.99;99696.31;5061147;28;45893;-72
2023/08/24 04:26:25;;;;;;;;;12.67;11.67;;;;;31.75;35.31;99684.88;5058578;28;45523;-72
2023/08/24 04:28:50;;;;;;;;;15.00;14.67;;;;;31.85;34.89;99699.44;5058535;28;45422;-72
2023/08/24 04:31:16;;;;;;;;;12.67;12.00;;;;;31.83;34.96;99686.03;5061062;28;45466;-72
2023/08/24 04:33:42;;;;;;;;;10.67;10.67;;;;;31.84;34.67;99692.31;5073903;28;45517;-72
2023/08/24 04:36:08;;;;;;;;;11.00;11.00;;;;;31.85;34.52;99689.53;5062146;28;45639;-73
2023/08/24 04:38:34;;;;;;;;;11.00;10.00;;;;;31.85;34.78;99692.22;5069519;28;45843;-72
2023/08/24 04:40:59;;;;;;;;;11.33;11.33;;;;;31.90;34.03;99700.84;5070870;28;45413;-73
2023/08/24 04:43:25;;;;;;;;;12.33;12.00;;;;;31.95;34.58;99702.34;5076675;28;47520;-73
2023/08/24 04:45:53;;;;;;;;;12.67;12.33;;;;;31.96;34.34;99714.88;5058472;28;45295;-72
2023/08/24 04:48:23;;;;;;;;;12.67;12.00;;;;;31.96;34.53;99714.88;5066014;28;45422;-73
2023/08/24 04:50:49;;;;;;;;;13.33;12.33;;;;;31.96;34.74;99720.28;5065676;28;45346;-73
2023/08/24 04:53:17;;;;;;;;;11.00;11.00;;;;;31.96;34.28;99717.59;5057783;28;45478;-72
2023/08/24 04:55:44;;;;;;;;;11.33;11.33;;;;;31.95;34.34;99714.00;5062194;28;46046;-72
2023/08/24 04:58:10;;;;;;;;;12.00;11.00;;;;;31.94;34.74;99711.44;5068984;28;45403;-73
2023/08/24 05:00:37;;;;;;;;;13.00;13.00;;;;;31.90;34.26;99714.34;5066003;28;45482;-73
2023/08/24 05:03:04;;;;;;;;;10.33;10.00;;;;;31.91;34.71;99715.19;5072463;28;45537;-72
2023/08/24 05:05:31;;;;;;;;;13.67;13.00;;;;;31.83;34.86;99698.69;5058260;28;45321;-73
2023/08/24 05:07:57;;;;;;;;;13.33;12.67;;;;;31.88;34.23;99719.00;5070155;28;45478;-73
2023/08/24 05:10:24;;;;;;;;;12.67;10.67;;;;;31.92;34.39;99722.34;5079520;27;45387;-72
2023/08/24 05:12:50;;;;;;;;;12.00;12.00;;;;;31.90;34.45;99722.44;5068744;27;46433;-73
2023/08/24 05:15:16;;;;;;;;;14.00;12.33;;;;;31.76;35.63;99717.19;5088709;27;45404;-73
2023/08/24 05:17:42;;;;;;;;;10.33;10.00;;;;;31.71;35.07;99724.72;5087718;27;45449;-72
2023/08/24 05:20:10;;;;;;;;;12.67;12.00;;;;;31.74;34.55;99734.47;5087510;27;45496;-73
2023/08/24 05:22:36;;;;;;;;;13.00;13.00;;;;;31.77;34.31;99742.34;5078761;27;46891;-73
2023/08/24 05:25:03;;;;;;;;;12.00;10.33;;;;;31.71;34.49;99731.03;5080769;27;45630;-72
2023/08/24 05:27:29;;;;;;;;;12.33;12.33;;;;;31.78;34.87;99742.22;5086375;27;45569;-72
2023/08/24 05:29:55;;;;;;;;;14.67;12.67;;;;;31.78;34.38;99747.63;5084706;27;45989;-72
2023/08/24 05:32:20;;;;;;;;;10.33;10.33;;;;;31.77;34.54;99743.19;5071690;27;45734;-73
2023/08/24 05:34:46;;;;;;;;;16.33;13.33;;;;;31.79;34.86;99746.66;5065655;27;45434;-73
2023/08/24 05:37:12;;;;;;;;;10.33;10.00;;;;;31.80;35.60;99747.53;5083381;27;45561;-73
2023/08/24 05:39:38;;;;;;;;;14.00;13.00;;;;;31.75;35.11;99755.94;5075480;27;45454;-72
2023/08/24 05:42:16;;;;;;;;;13.33;13.00;;;;;31.70;36.62;99758.13;5077682;27;46199;-72
2023/08/24 05:44:42;;;;;;;;;11.67;11.00;;;;;31.73;35.99;99759.72;5074868;28;45566;-73
2023/08/24 05:47:07;;;;;;;;;12.00;11.00;;;;;31.76;36.10;99754.97;5062461;27;45467;-71
2023/08/24 05:49:34;;;;;;;;;19.67;18.67;;;;;31.79;36.09;99756.59;5072751;27;45428;-74
2023/08/24 05:51:59;;;;;;;;;13.33;12.67;;;;;31.76;35.59;99760.38;5081619;27;45548;-73
2023/08/24 05:54:25;;;;;;;;;13.67;13.00;;;;;31.77;35.29;99759.41;5070682;27;45627;-72
2023/08/24 05:56:51;;;;;;;;;11.00;11.00;;;;;31.87;34.99;99763.19;5085314;27;45437;-72
2023/08/24 05:59:17;;;;;;;;;20.00;19.67;;;;;31.90;35.74;99762.09;5083909;27;45531;-73
2023/08/24 06:01:42;;;;;;;;;15.33;14.33;;;;;31.92;35.63;99769.13;5085016;27;46127;-73
2023/08/24 06:04:09;;;;;;;;;13.67;12.67;;;;;31.97;35.53;99767.91;5084110;27;46184;-72
2023/08/24 06:06:35;;;;;;;;;13.00;12.67;;;;;31.96;36.04;99763.50;5065368;27;45577;-73
2023/08/24 06:09:04;;;;;;;;;12.33;12.00;;;;;32.02;35.32;99763.94;5067071;27;45441;-73
2023/08/24 06:11:29;;;;;;;;;12.00;12.00;;;;;32.10;35.18;99768.81;5081997;27;45371;-73
2023/08/24 06:13:55;;;;;;;;;12.33;11.67;;;;;32.15;35.79;99766.63;5066378;27;45433;-73
2023/08/24 06:16:21;;;;;;;;;12.00;11.33;;;;;32.19;35.99;99773.56;5086484;27;45272;-73
2023/08/24 06:18:46;;;;;;;;;16.00;14.33;;;;;32.24;36.27;99771.38;5082521;27;45562;-73
2023/08/24 06:21:12;;;;;;;;;12.67;12.67;;;;;32.32;36.17;99767.25;5081185;27;46186;-73
2023/08/24 06:23:40;;;;;;;;;14.67;14.00;;;;;32.38;35.46;99766.78;5076367;28;45448;-71
2023/08/24 06:26:06;;;;;;;;;14.33;14.33;;;;;32.43;35.38;99756.50;5073597;28;45545;-73
2023/08/24 06:28:32;;;;;;;;;14.67;13.67;;;;;32.50;35.53;99765.88;5078786;27;45536;-72
2023/08/24 06:30:59;;;;;;;;;11.00;10.33;;;;;32.58;34.97;99763.50;5086521;27;45370;-72
2023/08/24 06:33:31;;;;;;;;;13.67;13.67;;;;;33.32;34.49;99770.63;5084628;27;45457;-73
2023/08/24 06:35:57;;;;;;;;;12.33;11.33;;;;;35.44;31.26;99775.09;5082537;27;45441;-73
2023/08/24 06:38:23;;;;;;;;;12.00;12.00;;;;;37.40;29.38;99782.88;5081764;27;45381;-72
2023/08/24 06:40:48;;;;;;;;;12.00;12.00;;;;;38.91;26.83;99779.97;5081288;27;45611;-73
2023/08/24 06:43:14;;;;;;;;;11.00;11.00;;;;;40.24;25.31;99789.00;5075530;28;45447;-74
2023/08/24 06:45:41;;;;;;;;;12.67;12.00;;;;;41.27;23.71;99780.56;5064080;27;45347;-73
2023/08/24 06:48:07;;;;;;;;;15.33;15.33;;;;;42.20;23.53;99781.09;5071700;27;45336;-73
2023/08/24 06:50:33;;;;;;;;;12.33;12.00;;;;;43.09;23.07;99781.63;5080956;27;45442;-73
2023/08/24 06:52:59;;;;;;;;;12.33;12.00;;;;;43.97;22.95;99791.13;5071792;28;45772;-74
2023/08/24 06:55:27;;;;;;;;;12.67;11.67;;;;;44.76;21.34;99786.88;5045972;28;45417;-74
2023/08/24 06:57:52;;;;;;;;;13.33;11.67;;;;;45.49;20.32;99792.31;5075572;28;45563;-76
2023/08/24 07:00:19;;;;;;;;;11.67;11.67;;;;;46.12;20.67;99800.59;5063933;28;45955;-75
2023/08/24 07:02:47;;;;;;;;;12.33;12.33;;;;;46.80;18.43;99787.75;5055921;28;45544;-74
2023/08/24 07:05:13;;;;;;;;;9.67;9.67;;;;;47.26;19.12;99788.88;5055306;28;45568;-74
2023/08/24 07:07:38;;;;;;;;;12.67;12.00;;;;;47.65;19.25;99781.63;5075372;28;45558;-74
2023/08/24 07:10:06;;;;;;;;;13.67;13.67;;;;;48.13;19.11;99780.47;5075956;28;46070;-74
2023/08/24 07:12:31;;;;;;;;;12.00;11.67;;;;;48.17;18.29;99754.03;5075849;28;45612;-74
2023/08/24 07:14:57;;;;;;;;;12.00;11.33;;;;;48.58;18.17;99783.28;5075935;28;45473;-74
2023/08/24 07:17:23;;;;;;;;;14.33;13.67;;;;;49.09;18.86;99778.75;5078771;27;45550;-76
2023/08/24 07:19:48;;;;;;;;;15.00;13.33;;;;;49.41;18.20;99775.91;5065777;28;45517;-75
2023/08/24 07:22:14;;;;;;;;;10.33;10.33;;;;;49.82;18.94;99771.69;5055539;28;45466;-75
2023/08/24 07:24:41;;;;;;;;;11.67;11.67;;;;;50.16;17.15;99767.47;5075011;28;45431;-75
2023/08/24 07:27:08;;;;;;;;;12.67;12.67;;;;;50.47;17.44;99779.50;5073893;28;45529;-75
2023/08/24 07:29:34;;;;;;;;;11.33;11.33;;;;;50.90;16.66;99767.34;5061824;27;45604;-78
2023/08/24 07:31:59;;;;;;;;;11.33;10.33;;;;;51.13;16.88;99766.56;5065815;27;45512;-75
2023/08/24 07:34:25;;;;;;;;;13.00;12.00;;;;;51.67;15.85;99766.47;5074937;27;45690;-77
2023/08/24 07:36:51;;;;;;;;;10.00;8.67;;;;;52.05;15.83;99768.75;5075947;28;45895;-74
2023/08/24 07:39:17;;;;;;;;;11.33;11.33;;;;;52.40;15.60;99772.53;5074907;27;45530;-75
2023/08/24 07:41:42;;;;;;;;;11.00;11.00;;;;;52.72;15.33;99772.88;5075551;27;45439;-74
2023/08/24 07:44:08;;;;;;;;;12.67;12.33;;;;;52.93;16.09;99776.94;5077090;28;45428;-74
2023/08/24 07:46:34;;;;;;;;;13.00;11.67;;;;;53.04;16.02;99775.16;5058244;28;45457;-74
2023/08/24 07:48:59;;;;;;;;;10.67;10.67;;;;;53.14;15.79;99769.72;5078764;28;46145;-73
2023/08/24 07:51:25;;;;;;;;;11.67;11.33;;;;;53.51;15.78;99773.97;5079132;28;45317;-74
2023/08/24 07:53:52;;;;;;;;;11.33;11.33;;;;;53.83;15.65;99765.81;5079015;28;45384;-74
2023/08/24 07:56:19;;;;;;;;;12.00;10.67;;;;;53.95;15.31;99765.69;5081804;27;45473;-76
2023/08/24 07:58:45;;;;;;;;;10.33;10.33;;;;;54.03;16.00;99771.66;5086966;27;45401;-74
2023/08/24 08:01:11;;;;;;;;;13.67;12.67;;;;;54.16;15.74;99776.03;5084833;27;45553;-77
2023/08/24 08:03:37;;;;;;;;;12.00;12.00;;;;;54.10;15.83;99773.41;5083262;27;45489;-75
2023/08/24 08:06:04;;;;;;;;;11.33;11.00;;;;;54.22;16.34;99775.03;5062168;27;45518;-77
2023/08/24 08:08:30;;;;;;;;;13.33;13.33;;;;;54.43;15.72;99764.06;5079662;27;45480;-74
2023/08/24 08:10:59;;;;;;;;;11.00;11.00;;;;;54.64;16.05;99776.31;5078386;27;45523;-74
2023/08/24 08:13:25;;;;;;;;;12.67;12.00;;;;;54.86;15.54;99778.22;5076349;28;45422;-74
2023/08/24 08:15:51;;;;;;;;;13.75;13.50;;;;;54.93;15.99;99767.66;5058574;28;45429;-75
2023/08/24 08:18:16;;;;;;;;;11.33;11.33;;;;;55.06;16.40;99771.97;5072971;28;45873;-74
2023/08/24 08:20:42;;;;;;;;;11.33;10.33;;;;;55.07;15.63;99763.31;5076239;28;46288;-75
2023/08/24 08:23:08;;;;;;;;;13.00;12.33;;;;;55.39;16.14;99768.88;5063722;28;45792;-74
2023/08/24 08:25:33;;;;;;;;;12.50;12.00;;;;;55.50;15.59;99764.22;5077544;28;45847;-78
2023/08/24 08:27:59;;;;;;;;;12.00;12.00;;;;;55.79;15.54;99766.66;5076687;28;46012;-73
2023/08/24 08:30:25;;;;;;;;;10.33;10.00;;;;;55.98;14.93;99767.03;5058357;28;45437;-71
2023/08/24 08:32:52;;;;;;;;;12.25;11.75;;;;;56.19;15.04;99777.22;5074972;28;45526;-72
2023/08/24 08:35:18;;;;;;;;;11.50;11.00;;;;;56.41;14.58;99778.97;5068711;28;45404;-72
2023/08/24 08:37:46;;;;;;;;;12.25;12.00;;;;;56.47;14.71;99775.09;5070308;28;45320;-72
2023/08/24 08:40:12;;;;;;;;;11.50;11.00;;;;;56.64;13.69;99774.00;5074396;27;46100;-71
2023/08/24 08:42:37;;;;;;;;;14.00;14.00;;;;;56.71;13.66;99774.56;5057599;28;45641;-72
2023/08/24 08:45:08;;;;;;;;;20.00;19.75;;;;;56.74;13.59;99777.66;5057623;28;45529;-71
2023/08/24 08:47:34;;;;;;;;;14.50;14.50;;;;;56.83;13.98;99775.16;5038995;28;45393;-71
2023/08/24 08:50:05;;;;;;;;;10.25;10.25;;;;;56.67;13.55;99767.81;5068162;28;46970;-71
2023/08/24 08:52:33;;;;;;;;;11.25;10.75;;;;;57.08;13.08;99779.94;5062798;28;45493;-71
2023/08/24 08:55:00;;;;;;;;;9.33;9.00;;;;;57.14;13.80;99784.44;5075838;27;45457;-72
2023/08/24 08:57:26;;;;;;;;;12.25;12.00;;;;;57.14;13.25;99789.22;5062786;28;45520;-71
2023/08/24 08:59:52;;;;;;;;;11.75;10.50;;;;;57.12;13.79;99792.28;5040577;27;45241;-72
2023/08/24 09:02:20;;;;;;;;;12.75;11.00;;;;;57.17;14.77;99789.50;5075229;28;45718;-71
2023/08/24 09:04:48;;;;;;;;;11.75;10.25;;;;;57.13;14.54;99770.69;5057359;28;45656;-71
2023/08/24 09:07:14;;;;;;;;;14.50;14.50;;;;;57.34;14.22;99794.81;5061185;28;46358;-73
2023/08/24 09:09:40;;;;;;;;;12.75;12.75;;;;;57.24;14.70;99800.44;5075537;28;45551;-74
2023/08/24 09:12:06;;;;;;;;;11.25;11.25;;;;;57.14;13.86;99806.06;5075874;28;45453;-75
2023/08/24 09:14:33;;;;;;;;;10.75;10.75;;;;;57.05;14.03;99802.13;5075548;28;45323;-74
2023/08/24 09:16:59;;;;;;;;;12.25;12.25;;;;;57.27;13.86;99807.44;5076619;28;45647;-74
2023/08/24 09:19:30;;;;;;;;;10.50;10.50;;;;;57.44;14.07;99813.63;5064562;27;45525;-76
2023/08/24 09:22:01;;;;;;;;;9.75;9.75;;;;;57.61;13.54;99821.75;5081753;27;45525;-74
2023/08/24 09:24:34;;;;;;;;;9.75;9.75;;;;;57.59;13.96;99823.16;5064091;28;45743;-73
2023/08/24 09:27:19;;;;;;;;;11.25;11.25;;;;;57.68;13.33;99821.47;5074642;28;46023;-74
2023/08/24 09:29:52;;;;;;;;;12.75;12.00;;;;;57.83;13.25;99826.22;5049237;28;45591;-73
2023/08/24 09:32:27;;;;;;;;;11.00;11.00;;;;;57.74;12.68;99825.97;5074687;28;45540;-76
2023/08/24 09:34:53;;;;;;;;;11.75;11.75;;;;;57.63;13.01;99827.97;5074455;28;45382;-76
2023/08/24 09:37:22;;;;;;;;;10.50;10.50;;;;;57.56;14.13;99835.78;5076082;28;46033;-81
2023/08/24 09:39:48;;;;;;;;;13.00;13.00;;;;;56.22;15.79;99808.63;5053362;28;45738;-80
2023/08/24 09:42:14;;;;;;;;;13.00;12.75;;;;;55.36;17.08;99833.00;5070954;28;45761;-81
2023/08/24 09:44:46;;;;;;;;;16.75;16.25;;;;;55.42;16.93;99840.31;5055764;28;45691;-75
2023/08/24 09:47:12;;;;;;;;;15.00;14.25;;;;;55.41;17.70;99847.00;5060284;28;46200;-76
2023/08/24 09:49:38;;;;;;;;;14.75;14.25;;;;;55.14;17.77;99852.66;5072867;27;45522;-75
2023/08/24 09:52:07;;;;;;;;;12.50;11.25;;;;;55.00;18.56;99827.91;5060729;28;46035;-76
2023/08/24 09:54:40;;;;;;;;;12.50;12.50;;;;;53.88;19.37;99827.34;5076010;28;45529;-75
2023/08/24 09:57:08;;;;;;;;;18.00;17.50;;;;;52.47;21.28;99851.25;5068340;27;46034;-76
2023/08/24 09:59:35;;;;;;;;;14.75;14.25;;;;;51.86;22.41;99831.28;5072332;28;45493;-77
2023/08/24 10:02:02;;;;;;;;;14.50;14.00;;;;;52.45;21.55;99864.59;5061987;27;45320;-75
2023/08/24 10:04:29;;;;;;;;;12.50;12.00;;;;;52.78;21.38;99855.53;5056659;28;45546;-76
2023/08/24 10:07:07;;;;;;;;;12.00;11.50;;;;;52.67;21.56;99867.59;5070796;28;45529;-76
2023/08/24 10:09:48;;;;;;;;;14.00;13.00;;;;;52.21;21.49;99861.03;5068599;27;45547;-75
2023/08/24 10:12:18;;;;;;;;;14.00;13.00;;;;;51.91;21.55;99873.16;5057294;28;45656;-75
2023/08/24 10:14:55;;;;;;;;;12.33;11.00;;;;;51.50;22.21;99872.16;5074801;28;45327;-76
2023/08/24 10:17:26;;;;;;;;;10.67;10.67;;;;;50.17;23.68;99871.97;5072198;28;45550;-76
2023/08/24 10:19:53;;;;;;;;;13.67;11.67;;;;;49.63;24.69;99885.47;5074723;28;45500;-75
2023/08/24 10:22:20;;;;;;;;;11.67;11.67;;;;;49.10;24.80;99867.25;5064676;28;45612;-76
2023/08/24 10:24:47;;;;;;;;;11.00;11.00;;;;;48.60;25.29;99880.91;5074921;27;45657;-75
2023/08/24 10:27:16;;;;;;;;;12.33;11.33;;;;;48.34;25.03;99843.06;5072316;28;46292;-76
2023/08/24 10:29:42;;;;;;;;;12.33;12.33;;;;;48.84;25.92;99884.03;5072324;28;45422;-75
2023/08/24 10:32:08;;;;;;;;;4.00;3.33;;;;;48.94;25.35;99892.72;5074844;28;45722;-75
2023/08/24 10:34:35;;;;;;;;;8.67;8.67;;;;;47.82;26.28;99862.31;5069365;28;45417;-75
2023/08/24 10:37:09;;;;;;;;;11.67;9.00;;;;;47.58;26.78;99897.88;5065918;28;46661;-75
2023/08/24 10:39:38;;;;;;;;;11.67;10.67;;;;;46.96;26.58;99890.69;5065819;28;45430;-75
2023/08/24 10:42:04;;;;;;;;;13.00;12.33;;;;;47.00;27.88;99906.66;5055226;28;45332;-76
2023/08/24 10:44:37;;;;;;;;;9.33;9.33;;;;;46.62;27.84;99904.34;5062449;28;45370;-75
2023/08/24 10:47:18;;;;;;;;;9.33;9.33;;;;;46.48;27.65;99905.34;5073380;28;47739;-74
2023/08/24 10:50:05;;;;;;;;;10.33;10.33;;;;;46.49;27.72;99911.72;5054827;28;45474;-75
2023/08/24 10:52:33;;;;;;;;;20.00;19.33;;;;;45.62;28.62;99925.63;5062836;28;45482;-74
2023/08/24 10:55:02;;;;;;;;;11.67;10.67;;;;;44.80;30.09;99898.41;5061291;28;45416;-74
2023/08/24 10:57:38;;;;;;;;;10.33;10.33;;;;;45.27;29.66;99930.19;5062902;28;45473;-75
2023/08/24 11:00:05;;;;;;;;;10.00;9.00;;;;;44.30;30.61;99933.94;5061059;28;45603;-74
2023/08/24 11:02:42;;;;;;;;;10.67;10.33;;;;;43.79;31.61;99934.56;5063148;28;45521;-75
2023/08/24 11:05:22;;;;;;;;;9.67;9.00;;;;;42.93;33.10;99936.47;5055482;28;45435;-74
2023/08/24 11:08:03;;;;;;;;;12.33;11.67;;;;;42.22;33.57;99919.00;5061435;28;45243;-74
2023/08/24 11:10:56;;;;;;;;;11.67;11.67;;;;;41.85;34.03;99934.97;5056734;28;45525;-75
2023/08/24 11:13:25;;;;;;;;;12.00;12.00;;;;;41.97;34.10;99943.69;5053134;28;45639;-74
2023/08/24 11:15:54;;;;;;;;;13.00;12.00;;;;;41.84;33.73;99946.94;5056017;28;45485;-74
2023/08/24 11:18:26;;;;;;;;;12.00;11.67;;;;;41.78;33.69;99919.38;5057158;28;45400;-74
2023/08/24 11:20:59;;;;;;;;;12.00;12.00;;;;;41.46;34.40;99948.44;5059002;28;45240;-74